Big Bear City, CA

2:16 PM PDT on September 22, 2019 (GMT -0700)
Big Bear City

Weather History for KL35 - May, 2019

Change the Weather History Date:

Thursday, May 30, 2019

  Actual Average (KBUO) Record (KBUO)
Temperature  
Mean Temperature 47 °F -  
Max Temperature 62 °F 76 °F 95 °F (1997)
Min Temperature 32 °F 51 °F 46 °F (1998)
Degree Days  
Heating Degree Days 18    
Moisture  
Dew Point 34 °F    
Average Humidity 62    
Maximum Humidity 100    
Minimum Humidity 34    
Precipitation  
Precipitation 0.00 in - - ()
Sea Level Pressure  
Sea Level Pressure 30.09 in    
Wind  
Wind Speed 3 mph (West)    
Max Wind Speed 18 mph    
Max Gust Speed 23 mph    
Visibility 10 miles    
Events      
Averages and records for this station are not official NWS values.
T = Trace of Precipitation, MM = Missing Value Source: NWS Daily Summary

Daily Weather History Graph

Daily Weather History Graph

Search for Another Location

Airport or City:

Astronomy

May. 30, 2019 Rise Set
Actual Time 5:37 AM PDT 7:52 PM PDT
Civil Twilight 5:08 AM PDT 8:21 PM PDT
Nautical Twilight 4:33 AM PDT 8:56 PM PDT
Astronomical Twilight 3:55 AM PDT 9:35 PM PDT
Moon 3:31 AM PDT (5/30) 4:17 PM PDT (5/30)
Length of Visible Light 15h 13m
Length of Day
14h 15m
Waning Crescent, 14% of the Moon is Illuminated
May 30
Waning Crescent
Jun 3
New
Jun 9
First Quarter
Jun 17
Full
Jun 25
Last Quarter

Hourly Weather History & Observations

Time (PDT) Temp. Dew Point Humidity Pressure Visibility Wind Dir Wind Speed Gust Speed Precip Events Conditions
12:15 AM 37.4 °F 32.0 °F 81% 30.08 in 10.0 mi Calm Calm - N/A   Clear
12:35 AM 37.4 °F 32.0 °F 81% 30.08 in 10.0 mi Calm Calm - N/A   Clear
12:55 AM 35.6 °F 32.0 °F 87% 30.08 in 10.0 mi Calm Calm - N/A   Clear
1:15 AM 35.6 °F 32.0 °F 87% 30.08 in 10.0 mi Calm Calm - N/A   Clear
1:35 AM 35.6 °F 32.0 °F 87% 30.08 in 10.0 mi Calm Calm - N/A   Scattered Clouds
1:55 AM 33.8 °F 32.0 °F 93% 30.08 in 10.0 mi Calm Calm - N/A   Scattered Clouds
2:15 AM 35.6 °F 32.0 °F 87% 30.08 in 10.0 mi Calm Calm - N/A   Mostly Cloudy
2:35 AM 33.8 °F 32.0 °F 93% 30.08 in 10.0 mi Calm Calm - N/A   Scattered Clouds
2:55 AM 33.8 °F 32.0 °F 93% 30.08 in 10.0 mi Calm Calm - N/A   Clear
3:15 AM 33.8 °F 32.0 °F 93% 30.08 in 10.0 mi Calm Calm - N/A   Clear
3:35 AM 33.8 °F 30.2 °F 87% 30.07 in 10.0 mi Calm Calm - N/A   Clear
3:55 AM 33.8 °F 30.2 °F 87% 30.07 in 10.0 mi Calm Calm - N/A   Clear
4:15 AM 32.0 °F 30.2 °F 93% 30.07 in 10.0 mi Calm Calm - N/A   Clear
4:35 AM 32.0 °F 32.0 °F 100% 30.07 in 10.0 mi Calm Calm - N/A   Clear
4:55 AM 32.0 °F 30.2 °F 93% 30.06 in 10.0 mi Calm Calm - N/A   Clear
5:15 AM 32.0 °F 30.2 °F 93% 30.07 in 10.0 mi Calm Calm - N/A   Clear
5:35 AM 32.0 °F 32.0 °F 100% 30.08 in 10.0 mi Calm Calm - N/A   Clear
5:55 AM 32.0 °F 30.2 °F 93% 30.08 in 10.0 mi Calm Calm - N/A   Clear
6:10 AM 32.0 °F 30.2 °F 93% 30.08 in 10.0 mi Calm Calm - N/A   Clear
6:35 AM 35.6 °F 32.0 °F 87% 30.08 in 10.0 mi Calm Calm - N/A   Clear
6:55 AM 37.4 °F 32.0 °F 81% 30.09 in 10.0 mi Calm Calm - N/A   Clear
7:15 AM 41.0 °F 35.6 °F 81% 30.09 in 10.0 mi Calm Calm - N/A   Clear
7:35 AM 44.6 °F 35.6 °F 71% 30.09 in 10.0 mi Calm Calm - N/A   Clear
7:55 AM 48.2 °F 35.6 °F 62% 30.09 in 10.0 mi Calm Calm - N/A   Clear
8:15 AM 50.0 °F 35.6 °F 58% 30.09 in 10.0 mi Calm Calm - N/A   Clear
8:35 AM 55.4 °F 33.8 °F 44% 30.09 in 10.0 mi West 3.5 mph - N/A   Clear
8:55 AM 55.4 °F 33.8 °F 44% 30.10 in 10.0 mi WSW 3.5 mph - N/A   Clear
9:15 AM 55.4 °F 32.0 °F 41% 30.10 in 10.0 mi West 4.6 mph - N/A   Clear
9:35 AM 55.4 °F 32.0 °F 41% 30.10 in 10.0 mi WNW 5.8 mph - N/A   Scattered Clouds
9:55 AM 55.4 °F 32.0 °F 41% 30.10 in 10.0 mi WSW 4.6 mph - N/A   Scattered Clouds
10:15 AM 59.0 °F 32.0 °F 36% 30.10 in 10.0 mi West 8.1 mph - N/A   Mostly Cloudy
10:35 AM 59.0 °F 32.0 °F 36% 30.11 in 10.0 mi West 10.4 mph - N/A   Mostly Cloudy
10:55 AM 59.0 °F 32.0 °F 36% 30.11 in 10.0 mi West 6.9 mph - N/A   Scattered Clouds
11:15 AM 59.0 °F 32.0 °F 36% 30.11 in 10.0 mi WNW 5.8 mph - N/A   Scattered Clouds
11:35 AM 60.8 °F 32.0 °F 34% 30.11 in 10.0 mi West 4.6 mph - N/A   Mostly Cloudy
11:55 AM 59.0 °F 32.0 °F 36% 30.11 in 10.0 mi NW 8.1 mph - N/A   Mostly Cloudy
12:15 PM 60.8 °F 32.0 °F 34% 30.11 in 10.0 mi West 12.7 mph 16.1 mph N/A   Mostly Cloudy
12:35 PM 62.6 °F 33.8 °F 34% 30.10 in 10.0 mi West 13.8 mph 18.4 mph N/A   Mostly Cloudy
12:55 PM 62.6 °F 33.8 °F 34% 30.10 in 10.0 mi West 18.4 mph 23.0 mph N/A   Overcast
1:15 PM 62.6 °F 33.8 °F 34% 30.09 in 10.0 mi West 13.8 mph 21.9 mph N/A   Overcast
1:35 PM 62.6 °F 33.8 °F 34% 30.09 in 10.0 mi West 15.0 mph 21.9 mph N/A   Mostly Cloudy
1:55 PM 62.6 °F 33.8 °F 34% 30.09 in 10.0 mi West 17.3 mph 21.9 mph N/A   Scattered Clouds
2:15 PM 60.8 °F 32.0 °F 34% 30.08 in 10.0 mi West 13.8 mph 20.7 mph N/A   Scattered Clouds
2:35 PM 62.6 °F 33.8 °F 34% 30.08 in 10.0 mi West 17.3 mph - N/A   Scattered Clouds
2:55 PM 60.8 °F 33.8 °F 36% 30.08 in 10.0 mi West 10.4 mph 18.4 mph N/A   Scattered Clouds
3:15 PM 60.8 °F 33.8 °F 36% 30.08 in 10.0 mi West 9.2 mph - N/A   Clear
3:35 PM 60.8 °F 35.6 °F 39% 30.08 in 10.0 mi West 10.4 mph 17.3 mph N/A   Clear
3:55 PM 60.8 °F 35.6 °F 39% 30.08 in 10.0 mi West 12.7 mph 19.6 mph N/A   Clear
4:15 PM 60.8 °F 35.6 °F 39% 30.07 in 10.0 mi WSW 8.1 mph 16.1 mph N/A   Clear
4:35 PM 60.8 °F 35.6 °F 39% 30.07 in 10.0 mi WSW 8.1 mph 16.1 mph N/A   Clear
4:55 PM 60.8 °F 37.4 °F 42% 30.07 in 10.0 mi SW 5.8 mph - N/A   Clear
5:15 PM 59.0 °F 37.4 °F 45% 30.07 in 10.0 mi SSW 6.9 mph 16.1 mph N/A   Clear
5:35 PM 59.0 °F 37.4 °F 45% 30.06 in 10.0 mi WSW 6.9 mph - N/A   Clear
5:55 PM 59.0 °F 39.2 °F 48% 30.07 in 10.0 mi WSW 8.1 mph 16.1 mph N/A   Clear
6:15 PM 57.2 °F 39.2 °F 51% 30.07 in 10.0 mi West 11.5 mph 16.1 mph N/A   Clear
6:35 PM 55.4 °F 39.2 °F 54% 30.07 in 10.0 mi West 9.2 mph - N/A   Clear
6:55 PM 55.4 °F 39.2 °F 54% 30.07 in 10.0 mi Calm Calm - N/A   Clear
7:15 PM 55.4 °F 39.2 °F 54% 30.07 in 10.0 mi Calm Calm - N/A   Clear
7:35 PM 53.6 °F 39.2 °F 58% 30.08 in 10.0 mi West 4.6 mph - N/A   Clear
7:55 PM 51.8 °F 39.2 °F 62% 30.08 in 10.0 mi West 5.8 mph - N/A   Clear
8:15 PM 51.8 °F 39.2 °F 62% 30.08 in 10.0 mi WNW 4.6 mph - N/A   Clear
8:35 PM 51.8 °F 39.2 °F 62% 30.09 in 10.0 mi Calm Calm - N/A   Clear
8:55 PM 50.0 °F 39.2 °F 66% 30.09 in 10.0 mi Calm Calm - N/A   Clear
9:15 PM 50.0 °F 39.2 °F 66% 30.10 in 10.0 mi Calm Calm - N/A   Clear
9:35 PM 50.0 °F 37.4 °F 62% 30.10 in 10.0 mi Calm Calm - N/A   Clear
9:55 PM 46.4 °F 37.4 °F 71% 30.11 in 10.0 mi Calm Calm - N/A   Clear
10:15 PM 44.6 °F 37.4 °F 76% 30.11 in 10.0 mi Calm Calm - N/A   Clear
10:35 PM 42.8 °F 37.4 °F 81% 30.11 in 10.0 mi Calm Calm - N/A   Clear
10:55 PM 42.8 °F 35.6 °F 76% 30.11 in 10.0 mi Calm Calm - N/A   Clear
11:15 PM 44.6 °F 37.4 °F 76% 30.11 in 10.0 mi Calm Calm - N/A   Clear
11:35 PM 42.8 °F 35.6 °F 76% 30.11 in 10.0 mi Calm Calm - N/A   Clear
11:55 PM 41.0 °F 33.8 °F 76% 30.11 in 10.0 mi Calm Calm - N/A   Clear